Thurston, OH (43157)

10:42 AM EST on February 28, 2017 (GMT -0500)
Keistor Manor | | Change Station

Elev 1010 ft 39.76 °N, 82.55 °W | Updated 7 minutes ago

Rain
Rain
45.2 °F
Feels Like 45 °F
N
2.0
Wind Variable Wind from SSE
Gusts 17.0 mph

Today
High -- | Low -- °F
--% Chance of Precip.
Yesterday
High -- | Low -- °F
Precip. -- in
Pressure 30.11 in
Visibility 10.0 miles
Clouds Mostly Cloudy 9500 ft
Mostly Cloudy 12000 ft
Windchill 45 °F
Dew Point 43 °F
Humidity 90%
Rainfall 0.05 in
Snow Depth Not available.
7:04 AM 6:21 PM
Waxing Crescent, 5% visible
METAR KLHQ 281453Z AUTO 15008KT 10SM BKN095 BKN120 08/05 A3010 RMK AO2 RAB26E51 SLP194 P0000 60004 T00780050 58024
Pressure 30.11 in
Visibility 10.0 miles
Clouds Mostly Cloudy 9500 ft
Mostly Cloudy 12000 ft
Windchill 45 °F
Dew Point 43 °F
Humidity 90%
Rainfall 0.05 in
Snow Depth Not available.
7:04 AM 6:21 PM
Waxing Crescent, 5% visible
METAR KLHQ 281453Z AUTO 15008KT 10SM BKN095 BKN120 08/05 A3010 RMK AO2 RAB26E51 SLP194 P0000 60004 T00780050 58024

Get Your Daily Forecast Email!

Thanks for signing up!

Be on the lookout for a verification email in your inbox.

You'll start receiving the daily forecast at 8 AM.

×

10-Day Weather Forecast

Almanac

Astronomy

Feb. 28, 2017 Rise Set
Actual Time
Civil Twilight
Nautical Twilight
Astronomical Twilight
Moon
Length of Visible Light
Length of Day
Tomorrow will be .
, % of the Moon is Illuminated

Today's Extremes

State Highs State Lows

Community

WunderPhotos

Upload Photos

1,962,540 photos uploaded!

WunderBlog® & News

Nearby

Air Quality

  Air Quality AQ Index Pollutant
Not available.

Snow Depth

Station Depth Elevation

Earthquake Activity

City Distance Mag. Time & Date
Minimum magnitude displayed is 2.5.

Coastal Water Temperatures

Place Temperature

Stations

Nearby Weather Stations

Station Location Temp. Windchill Dew Point Humidity Wind Precip. Elev Updated Type
                   

Watches & Warnings

There are currently no watches in effect.